sensor_id;sensor_type;location;lat;lon;timestamp;temperature;humidity
46976;DHT22;32724;51.094;6.996;2022-07-12T00:01:38;14.20;99.90
46976;DHT22;32724;51.094;6.996;2022-07-12T00:04:03;14.30;99.90
46976;DHT22;32724;51.094;6.996;2022-07-12T00:06:29;14.10;99.90
46976;DHT22;32724;51.094;6.996;2022-07-12T00:08:54;14.10;99.90
46976;DHT22;32724;51.094;6.996;2022-07-12T00:11:20;14.10;99.90
46976;DHT22;32724;51.094;6.996;2022-07-12T00:13:45;14.00;99.90
46976;DHT22;32724;51.094;6.996;2022-07-12T00:16:11;14.00;99.90
46976;DHT22;32724;51.094;6.996;2022-07-12T00:18:36;14.00;99.90
46976;DHT22;32724;51.094;6.996;2022-07-12T00:21:02;13.90;99.90
46976;DHT22;32724;51.094;6.996;2022-07-12T00:23:27;13.80;99.90
46976;DHT22;32724;51.094;6.996;2022-07-12T00:25:53;13.80;99.90
46976;DHT22;32724;51.094;6.996;2022-07-12T00:28:18;13.70;99.90
46976;DHT22;32724;51.094;6.996;2022-07-12T00:30:44;13.70;99.90
46976;DHT22;32724;51.094;6.996;2022-07-12T00:33:09;13.60;99.90
46976;DHT22;32724;51.094;6.996;2022-07-12T00:35:35;13.60;99.90
46976;DHT22;32724;51.094;6.996;2022-07-12T00:38:00;13.60;99.90
46976;DHT22;32724;51.094;6.996;2022-07-12T00:40:26;13.50;99.90
46976;DHT22;32724;51.094;6.996;2022-07-12T00:42:51;13.50;99.90
46976;DHT22;32724;51.094;6.996;2022-07-12T00:45:17;13.40;99.90
46976;DHT22;32724;51.094;6.996;2022-07-12T00:47:43;13.40;99.90
46976;DHT22;32724;51.094;6.996;2022-07-12T00:50:10;13.40;99.90
46976;DHT22;32724;51.094;6.996;2022-07-12T00:52:36;13.40;99.90
46976;DHT22;32724;51.094;6.996;2022-07-12T00:55:05;13.30;99.90
46976;DHT22;32724;51.094;6.996;2022-07-12T00:57:34;13.30;99.90
46976;DHT22;32724;51.094;6.996;2022-07-12T01:00:00;13.30;99.90
46976;DHT22;32724;51.094;6.996;2022-07-12T01:02:25;13.20;99.90
46976;DHT22;32724;51.094;6.996;2022-07-12T01:04:51;13.20;99.90
46976;DHT22;32724;51.094;6.996;2022-07-12T01:07:18;13.20;99.90
46976;DHT22;32724;51.094;6.996;2022-07-12T01:09:44;13.20;99.90
46976;DHT22;32724;51.094;6.996;2022-07-12T01:12:09;13.10;99.90
46976;DHT22;32724;51.094;6.996;2022-07-12T01:14:36;13.10;99.90
46976;DHT22;32724;51.094;6.996;2022-07-12T01:17:02;13.10;99.90
46976;DHT22;32724;51.094;6.996;2022-07-12T01:19:28;13.10;99.90
46976;DHT22;32724;51.094;6.996;2022-07-12T01:21:55;13.10;99.90
46976;DHT22;32724;51.094;6.996;2022-07-12T01:24:22;13.00;99.90
46976;DHT22;32724;51.094;6.996;2022-07-12T01:26:47;13.00;99.90
46976;DHT22;32724;51.094;6.996;2022-07-12T01:29:14;13.00;99.90
46976;DHT22;32724;51.094;6.996;2022-07-12T01:31:40;13.10;99.90
46976;DHT22;32724;51.094;6.996;2022-07-12T01:34:05;13.00;99.90
46976;DHT22;32724;51.094;6.996;2022-07-12T01:36:32;13.10;99.90
46976;DHT22;32724;51.094;6.996;2022-07-12T01:38:58;13.10;99.90
46976;DHT22;32724;51.094;6.996;2022-07-12T01:41:23;13.10;99.90
46976;DHT22;32724;51.094;6.996;2022-07-12T01:43:50;13.00;99.90
46976;DHT22;32724;51.094;6.996;2022-07-12T01:46:16;13.00;99.90
46976;DHT22;32724;51.094;6.996;2022-07-12T01:48:41;13.00;99.90
46976;DHT22;32724;51.094;6.996;2022-07-12T01:51:06;13.00;99.90
46976;DHT22;32724;51.094;6.996;2022-07-12T01:53:32;13.00;99.90
46976;DHT22;32724;51.094;6.996;2022-07-12T01:55:58;13.00;99.90
46976;DHT22;32724;51.094;6.996;2022-07-12T01:58:23;12.90;99.90
46976;DHT22;32724;51.094;6.996;2022-07-12T02:00:49;12.90;99.90
46976;DHT22;32724;51.094;6.996;2022-07-12T02:03:17;12.90;99.90
46976;DHT22;32724;51.094;6.996;2022-07-12T02:05:43;12.90;99.90
46976;DHT22;32724;51.094;6.996;2022-07-12T02:08:08;12.90;99.90
46976;DHT22;32724;51.094;6.996;2022-07-12T02:10:34;12.90;99.90
46976;DHT22;32724;51.094;6.996;2022-07-12T02:13:03;12.90;99.90
46976;DHT22;32724;51.094;6.996;2022-07-12T02:15:28;12.80;99.90
46976;DHT22;32724;51.094;6.996;2022-07-12T02:17:54;12.80;99.90
46976;DHT22;32724;51.094;6.996;2022-07-12T02:20:19;12.80;99.90
46976;DHT22;32724;51.094;6.996;2022-07-12T02:22:45;12.70;99.90
46976;DHT22;32724;51.094;6.996;2022-07-12T02:25:10;12.70;99.90
46976;DHT22;32724;51.094;6.996;2022-07-12T02:27:37;12.70;99.90
46976;DHT22;32724;51.094;6.996;2022-07-12T02:30:03;12.60;99.90
46976;DHT22;32724;51.094;6.996;2022-07-12T02:32:29;12.60;99.90
46976;DHT22;32724;51.094;6.996;2022-07-12T02:34:54;12.60;99.90
46976;DHT22;32724;51.094;6.996;2022-07-12T02:37:20;12.60;99.90
46976;DHT22;32724;51.094;6.996;2022-07-12T02:39:45;12.60;99.90
46976;DHT22;32724;51.094;6.996;2022-07-12T02:42:11;12.70;99.90
46976;DHT22;32724;51.094;6.996;2022-07-12T02:44:36;12.70;99.90
46976;DHT22;32724;51.094;6.996;2022-07-12T02:47:02;12.70;99.90
46976;DHT22;32724;51.094;6.996;2022-07-12T02:49:27;12.70;99.90
46976;DHT22;32724;51.094;6.996;2022-07-12T02:51:53;12.70;99.90
46976;DHT22;32724;51.094;6.996;2022-07-12T02:54:18;12.60;99.90
46976;DHT22;32724;51.094;6.996;2022-07-12T02:56:44;12.60;99.90
46976;DHT22;32724;51.094;6.996;2022-07-12T02:59:09;12.60;99.90
46976;DHT22;32724;51.094;6.996;2022-07-12T03:01:34;12.50;99.90
46976;DHT22;32724;51.094;6.996;2022-07-12T03:04:01;12.50;99.90
46976;DHT22;32724;51.094;6.996;2022-07-12T03:06:26;12.50;99.90
46976;DHT22;32724;51.094;6.996;2022-07-12T03:08:52;12.50;99.90
46976;DHT22;32724;51.094;6.996;2022-07-12T03:11:17;12.50;99.90
46976;DHT22;32724;51.094;6.996;2022-07-12T03:13:43;12.50;99.90
46976;DHT22;32724;51.094;6.996;2022-07-12T03:16:08;12.40;99.90
46976;DHT22;32724;51.094;6.996;2022-07-12T03:18:34;12.40;99.90
46976;DHT22;32724;51.094;6.996;2022-07-12T03:20:59;12.40;99.90
46976;DHT22;32724;51.094;6.996;2022-07-12T03:23:25;12.40;99.90
46976;DHT22;32724;51.094;6.996;2022-07-12T03:25:50;12.40;99.90
46976;DHT22;32724;51.094;6.996;2022-07-12T03:28:16;12.40;99.90
46976;DHT22;32724;51.094;6.996;2022-07-12T03:30:41;12.40;99.90
46976;DHT22;32724;51.094;6.996;2022-07-12T03:33:07;12.40;99.90
46976;DHT22;32724;51.094;6.996;2022-07-12T03:35:33;12.40;99.90
46976;DHT22;32724;51.094;6.996;2022-07-12T03:37:58;12.40;99.90
46976;DHT22;32724;51.094;6.996;2022-07-12T03:40:24;12.40;99.90
46976;DHT22;32724;51.094;6.996;2022-07-12T03:42:51;12.40;99.90
46976;DHT22;32724;51.094;6.996;2022-07-12T03:45:16;12.40;99.90
46976;DHT22;32724;51.094;6.996;2022-07-12T03:47:42;12.40;99.90
46976;DHT22;32724;51.094;6.996;2022-07-12T03:50:09;12.40;99.90
46976;DHT22;32724;51.094;6.996;2022-07-12T03:52:36;12.40;99.90
46976;DHT22;32724;51.094;6.996;2022-07-12T03:55:01;12.40;99.90
46976;DHT22;32724;51.094;6.996;2022-07-12T03:57:28;12.40;99.90
46976;DHT22;32724;51.094;6.996;2022-07-12T03:59:54;12.50;99.90
46976;DHT22;32724;51.094;6.996;2022-07-12T04:02:20;12.50;99.90
46976;DHT22;32724;51.094;6.996;2022-07-12T04:04:45;12.60;99.90
46976;DHT22;32724;51.094;6.996;2022-07-12T04:07:11;12.60;99.90
46976;DHT22;32724;51.094;6.996;2022-07-12T04:09:36;12.60;99.90
46976;DHT22;32724;51.094;6.996;2022-07-12T04:12:02;12.60;99.90
46976;DHT22;32724;51.094;6.996;2022-07-12T04:14:27;12.60;99.90
46976;DHT22;32724;51.094;6.996;2022-07-12T04:16:54;12.60;99.90
46976;DHT22;32724;51.094;6.996;2022-07-12T04:19:19;12.70;99.90
46976;DHT22;32724;51.094;6.996;2022-07-12T04:21:45;12.70;99.90
46976;DHT22;32724;51.094;6.996;2022-07-12T04:24:11;12.80;99.90
46976;DHT22;32724;51.094;6.996;2022-07-12T04:26:36;12.80;99.90
46976;DHT22;32724;51.094;6.996;2022-07-12T04:29:01;12.90;99.90
46976;DHT22;32724;51.094;6.996;2022-07-12T04:31:27;12.90;99.90
46976;DHT22;32724;51.094;6.996;2022-07-12T04:33:52;13.00;99.90
46976;DHT22;32724;51.094;6.996;2022-07-12T04:36:18;13.00;99.90
46976;DHT22;32724;51.094;6.996;2022-07-12T04:38:43;13.10;99.90
46976;DHT22;32724;51.094;6.996;2022-07-12T04:41:09;13.10;99.90
46976;DHT22;32724;51.094;6.996;2022-07-12T04:43:34;13.20;99.90
46976;DHT22;32724;51.094;6.996;2022-07-12T04:46:06;13.30;99.90
46976;DHT22;32724;51.094;6.996;2022-07-12T04:48:32;13.40;99.90
46976;DHT22;32724;51.094;6.996;2022-07-12T04:50:57;13.50;99.90
46976;DHT22;32724;51.094;6.996;2022-07-12T04:53:23;13.40;99.90
46976;DHT22;32724;51.094;6.996;2022-07-12T04:58:16;13.30;99.90
46976;DHT22;32724;51.094;6.996;2022-07-12T05:00:43;13.30;99.90
46976;DHT22;32724;51.094;6.996;2022-07-12T05:03:08;13.30;99.90
46976;DHT22;32724;51.094;6.996;2022-07-12T05:05:34;13.30;99.90
46976;DHT22;32724;51.094;6.996;2022-07-12T05:07:59;13.30;99.90
46976;DHT22;32724;51.094;6.996;2022-07-12T05:10:25;13.70;99.90
46976;DHT22;32724;51.094;6.996;2022-07-12T05:12:50;14.00;99.90
46976;DHT22;32724;51.094;6.996;2022-07-12T05:15:16;14.60;99.90
46976;DHT22;32724;51.094;6.996;2022-07-12T05:17:41;16.00;99.90
46976;DHT22;32724;51.094;6.996;2022-07-12T05:20:07;17.60;99.90
46976;DHT22;32724;51.094;6.996;2022-07-12T05:22:33;19.20;99.90
46976;DHT22;32724;51.094;6.996;2022-07-12T05:24:58;20.30;99.90
46976;DHT22;32724;51.094;6.996;2022-07-12T05:27:24;21.30;99.90
46976;DHT22;32724;51.094;6.996;2022-07-12T05:29:49;21.80;99.90
46976;DHT22;32724;51.094;6.996;2022-07-12T05:32:15;22.10;99.90
46976;DHT22;32724;51.094;6.996;2022-07-12T05:34:40;22.30;99.90
46976;DHT22;32724;51.094;6.996;2022-07-12T05:37:06;22.50;99.90
46976;DHT22;32724;51.094;6.996;2022-07-12T05:39:31;22.90;99.90
46976;DHT22;32724;51.094;6.996;2022-07-12T05:41:56;23.00;99.90
46976;DHT22;32724;51.094;6.996;2022-07-12T05:44:22;23.20;99.90
46976;DHT22;32724;51.094;6.996;2022-07-12T05:46:48;23.10;99.90
46976;DHT22;32724;51.094;6.996;2022-07-12T05:49:13;23.00;99.90
46976;DHT22;32724;51.094;6.996;2022-07-12T05:51:39;22.80;99.90
46976;DHT22;32724;51.094;6.996;2022-07-12T05:54:23;23.10;99.90
46976;DHT22;32724;51.094;6.996;2022-07-12T05:56:48;23.70;99.90
46976;DHT22;32724;51.094;6.996;2022-07-12T05:59:16;24.10;99.90
46976;DHT22;32724;51.094;6.996;2022-07-12T06:01:42;24.30;99.90
46976;DHT22;32724;51.094;6.996;2022-07-12T06:04:08;24.30;99.90
46976;DHT22;32724;51.094;6.996;2022-07-12T06:06:33;24.70;99.90
46976;DHT22;32724;51.094;6.996;2022-07-12T06:08:59;24.80;99.90
46976;DHT22;32724;51.094;6.996;2022-07-12T06:11:24;24.90;99.90
46976;DHT22;32724;51.094;6.996;2022-07-12T06:13:50;25.10;99.90
46976;DHT22;32724;51.094;6.996;2022-07-12T06:16:16;24.90;99.90
46976;DHT22;32724;51.094;6.996;2022-07-12T06:18:41;24.60;99.90
46976;DHT22;32724;51.094;6.996;2022-07-12T06:21:07;24.50;99.90
46976;DHT22;32724;51.094;6.996;2022-07-12T06:23:32;24.80;99.90
46976;DHT22;32724;51.094;6.996;2022-07-12T06:25:57;25.10;99.90
46976;DHT22;32724;51.094;6.996;2022-07-12T06:28:23;25.70;99.90
46976;DHT22;32724;51.094;6.996;2022-07-12T06:30:48;25.70;99.90
46976;DHT22;32724;51.094;6.996;2022-07-12T06:33:14;25.30;99.90
46976;DHT22;32724;51.094;6.996;2022-07-12T06:35:39;25.60;99.90
46976;DHT22;32724;51.094;6.996;2022-07-12T06:38:05;25.80;99.90
46976;DHT22;32724;51.094;6.996;2022-07-12T06:40:30;25.90;99.90
46976;DHT22;32724;51.094;6.996;2022-07-12T06:42:56;26.10;99.90
46976;DHT22;32724;51.094;6.996;2022-07-12T06:45:21;26.40;99.90
46976;DHT22;32724;51.094;6.996;2022-07-12T06:47:47;26.70;99.90
46976;DHT22;32724;51.094;6.996;2022-07-12T06:50:12;26.80;99.90
46976;DHT22;32724;51.094;6.996;2022-07-12T06:52:38;27.20;99.90
46976;DHT22;32724;51.094;6.996;2022-07-12T06:55:04;27.10;99.90
46976;DHT22;32724;51.094;6.996;2022-07-12T06:57:30;27.10;99.90
46976;DHT22;32724;51.094;6.996;2022-07-12T06:59:56;27.30;99.90
46976;DHT22;32724;51.094;6.996;2022-07-12T07:02:21;27.50;99.90
46976;DHT22;32724;51.094;6.996;2022-07-12T07:04:47;27.50;99.90
46976;DHT22;32724;51.094;6.996;2022-07-12T07:07:12;26.90;99.90
46976;DHT22;32724;51.094;6.996;2022-07-12T07:09:38;26.40;99.90
46976;DHT22;32724;51.094;6.996;2022-07-12T07:12:03;26.40;99.90
46976;DHT22;32724;51.094;6.996;2022-07-12T07:14:29;26.70;99.90
46976;DHT22;32724;51.094;6.996;2022-07-12T07:16:54;26.80;99.90
46976;DHT22;32724;51.094;6.996;2022-07-12T07:19:20;26.90;99.90
46976;DHT22;32724;51.094;6.996;2022-07-12T07:21:48;26.90;99.90
46976;DHT22;32724;51.094;6.996;2022-07-12T07:24:13;26.90;99.90
46976;DHT22;32724;51.094;6.996;2022-07-12T07:26:39;26.90;99.90
46976;DHT22;32724;51.094;6.996;2022-07-12T07:29:04;26.80;99.90
46976;DHT22;32724;51.094;6.996;2022-07-12T07:31:48;26.80;99.90
46976;DHT22;32724;51.094;6.996;2022-07-12T07:34:15;26.60;99.90
46976;DHT22;32724;51.094;6.996;2022-07-12T07:36:41;26.20;99.90
46976;DHT22;32724;51.094;6.996;2022-07-12T07:39:06;25.50;99.90
46976;DHT22;32724;51.094;6.996;2022-07-12T07:41:31;25.40;99.90
46976;DHT22;32724;51.094;6.996;2022-07-12T07:43:57;25.00;99.90
46976;DHT22;32724;51.094;6.996;2022-07-12T07:46:22;24.90;99.90
46976;DHT22;32724;51.094;6.996;2022-07-12T07:48:48;24.30;99.90
46976;DHT22;32724;51.094;6.996;2022-07-12T07:51:13;24.20;99.90
46976;DHT22;32724;51.094;6.996;2022-07-12T07:53:39;24.10;99.90
46976;DHT22;32724;51.094;6.996;2022-07-12T07:56:04;24.00;99.90
46976;DHT22;32724;51.094;6.996;2022-07-12T07:58:30;24.20;99.90
46976;DHT22;32724;51.094;6.996;2022-07-12T08:00:55;24.30;99.90
46976;DHT22;32724;51.094;6.996;2022-07-12T08:03:21;24.30;99.90
46976;DHT22;32724;51.094;6.996;2022-07-12T08:05:46;24.40;99.90
46976;DHT22;32724;51.094;6.996;2022-07-12T08:08:12;24.60;99.90
46976;DHT22;32724;51.094;6.996;2022-07-12T08:10:37;24.70;99.90
46976;DHT22;32724;51.094;6.996;2022-07-12T08:13:03;24.70;99.90
46976;DHT22;32724;51.094;6.996;2022-07-12T08:15:29;24.90;99.90
46976;DHT22;32724;51.094;6.996;2022-07-12T08:17:55;24.80;99.90
46976;DHT22;32724;51.094;6.996;2022-07-12T08:20:24;24.60;99.90
46976;DHT22;32724;51.094;6.996;2022-07-12T08:22:49;24.70;99.90
46976;DHT22;32724;51.094;6.996;2022-07-12T08:25:15;24.70;99.90
46976;DHT22;32724;51.094;6.996;2022-07-12T08:27:41;24.40;99.90
46976;DHT22;32724;51.094;6.996;2022-07-12T08:30:06;24.40;99.90
46976;DHT22;32724;51.094;6.996;2022-07-12T08:32:32;24.40;99.90
46976;DHT22;32724;51.094;6.996;2022-07-12T08:34:57;24.20;99.90
46976;DHT22;32724;51.094;6.996;2022-07-12T08:37:23;24.10;99.90
46976;DHT22;32724;51.094;6.996;2022-07-12T08:39:49;24.40;99.90
46976;DHT22;32724;51.094;6.996;2022-07-12T08:42:15;24.70;99.90
46976;DHT22;32724;51.094;6.996;2022-07-12T08:44:41;25.10;99.90
46976;DHT22;32724;51.094;6.996;2022-07-12T08:47:10;25.10;99.90
46976;DHT22;32724;51.094;6.996;2022-07-12T08:49:36;25.10;99.90
46976;DHT22;32724;51.094;6.996;2022-07-12T08:54:46;24.70;99.90
46976;DHT22;32724;51.094;6.996;2022-07-12T08:57:11;24.70;99.90
46976;DHT22;32724;51.094;6.996;2022-07-12T08:59:38;24.70;99.90
46976;DHT22;32724;51.094;6.996;2022-07-12T09:02:03;24.90;99.90
46976;DHT22;32724;51.094;6.996;2022-07-12T09:04:29;25.20;99.90
46976;DHT22;32724;51.094;6.996;2022-07-12T09:06:55;25.50;99.90
46976;DHT22;32724;51.094;6.996;2022-07-12T09:09:31;25.80;99.90
46976;DHT22;32724;51.094;6.996;2022-07-12T09:11:57;25.70;99.90
46976;DHT22;32724;51.094;6.996;2022-07-12T09:14:23;25.70;99.90
46976;DHT22;32724;51.094;6.996;2022-07-12T09:19:53;25.90;99.90
46976;DHT22;32724;51.094;6.996;2022-07-12T09:22:19;26.10;99.90
46976;DHT22;32724;51.094;6.996;2022-07-12T09:24:45;26.00;99.90
46976;DHT22;32724;51.094;6.996;2022-07-12T09:27:10;25.90;99.90
46976;DHT22;32724;51.094;6.996;2022-07-12T09:29:54;26.00;99.90
46976;DHT22;32724;51.094;6.996;2022-07-12T09:32:19;26.10;99.90
46976;DHT22;32724;51.094;6.996;2022-07-12T09:35:03;25.80;99.90
46976;DHT22;32724;51.094;6.996;2022-07-12T09:37:48;25.80;99.90
46976;DHT22;32724;51.094;6.996;2022-07-12T09:40:14;26.00;99.90
46976;DHT22;32724;51.094;6.996;2022-07-12T09:42:40;26.00;99.90
46976;DHT22;32724;51.094;6.996;2022-07-12T09:45:07;25.80;99.90
46976;DHT22;32724;51.094;6.996;2022-07-12T09:47:33;26.00;99.90
46976;DHT22;32724;51.094;6.996;2022-07-12T09:49:59;26.10;99.90
46976;DHT22;32724;51.094;6.996;2022-07-12T09:52:25;26.10;99.90
46976;DHT22;32724;51.094;6.996;2022-07-12T09:54:51;26.00;99.90
46976;DHT22;32724;51.094;6.996;2022-07-12T09:59:46;25.70;99.90
46976;DHT22;32724;51.094;6.996;2022-07-12T10:02:13;26.00;99.90
46976;DHT22;32724;51.094;6.996;2022-07-12T10:04:41;26.40;99.90
46976;DHT22;32724;51.094;6.996;2022-07-12T10:07:07;26.50;99.90
46976;DHT22;32724;51.094;6.996;2022-07-12T10:09:33;26.60;99.90
46976;DHT22;32724;51.094;6.996;2022-07-12T10:11:59;26.50;99.90
46976;DHT22;32724;51.094;6.996;2022-07-12T10:14:25;26.80;99.90
46976;DHT22;32724;51.094;6.996;2022-07-12T10:16:51;27.10;99.90
46976;DHT22;32724;51.094;6.996;2022-07-12T10:21:50;27.80;99.90
46976;DHT22;32724;51.094;6.996;2022-07-12T10:26:56;27.70;99.90
46976;DHT22;32724;51.094;6.996;2022-07-12T10:29:22;27.80;99.90
46976;DHT22;32724;51.094;6.996;2022-07-12T10:31:47;27.60;99.90
46976;DHT22;32724;51.094;6.996;2022-07-12T10:39:22;27.80;99.90
46976;DHT22;32724;51.094;6.996;2022-07-12T10:44:38;28.10;99.90
46976;DHT22;32724;51.094;6.996;2022-07-12T10:47:05;28.10;99.90
46976;DHT22;32724;51.094;6.996;2022-07-12T10:49:31;28.10;99.90
46976;DHT22;32724;51.094;6.996;2022-07-12T10:54:35;28.00;99.90
46976;DHT22;32724;51.094;6.996;2022-07-12T10:57:01;27.90;99.90
46976;DHT22;32724;51.094;6.996;2022-07-12T10:59:26;28.00;99.90
46976;DHT22;32724;51.094;6.996;2022-07-12T11:01:53;28.30;99.90
46976;DHT22;32724;51.094;6.996;2022-07-12T11:04:20;28.30;99.90
46976;DHT22;32724;51.094;6.996;2022-07-12T11:06:45;28.10;99.90
46976;DHT22;32724;51.094;6.996;2022-07-12T11:09:11;27.70;99.90
46976;DHT22;32724;51.094;6.996;2022-07-12T11:11:40;27.30;99.90
46976;DHT22;32724;51.094;6.996;2022-07-12T11:14:06;27.20;99.90
46976;DHT22;32724;51.094;6.996;2022-07-12T11:16:32;27.50;99.90
46976;DHT22;32724;51.094;6.996;2022-07-12T11:18:58;28.00;99.90
46976;DHT22;32724;51.094;6.996;2022-07-12T11:21:23;28.20;99.90
46976;DHT22;32724;51.094;6.996;2022-07-12T11:23:49;28.30;99.90
46976;DHT22;32724;51.094;6.996;2022-07-12T11:26:15;28.40;99.90
46976;DHT22;32724;51.094;6.996;2022-07-12T11:28:42;28.20;99.90
46976;DHT22;32724;51.094;6.996;2022-07-12T11:33:34;28.10;99.90
46976;DHT22;32724;51.094;6.996;2022-07-12T11:36:00;28.00;99.90
46976;DHT22;32724;51.094;6.996;2022-07-12T11:38:27;27.80;99.90
46976;DHT22;32724;51.094;6.996;2022-07-12T11:40:59;27.60;99.90
46976;DHT22;32724;51.094;6.996;2022-07-12T11:43:26;27.70;99.90
46976;DHT22;32724;51.094;6.996;2022-07-12T11:45:52;27.90;99.90
46976;DHT22;32724;51.094;6.996;2022-07-12T11:48:18;28.20;99.90
46976;DHT22;32724;51.094;6.996;2022-07-12T11:50:43;28.30;99.90
46976;DHT22;32724;51.094;6.996;2022-07-12T11:53:16;28.00;99.90
46976;DHT22;32724;51.094;6.996;2022-07-12T11:55:43;28.00;99.90
46976;DHT22;32724;51.094;6.996;2022-07-12T11:58:09;27.70;99.90
46976;DHT22;32724;51.094;6.996;2022-07-12T12:00:35;27.60;99.90
46976;DHT22;32724;51.094;6.996;2022-07-12T12:03:00;27.90;99.90
46976;DHT22;32724;51.094;6.996;2022-07-12T12:05:26;28.30;99.90
46976;DHT22;32724;51.094;6.996;2022-07-12T12:07:52;28.70;99.90
46976;DHT22;32724;51.094;6.996;2022-07-12T12:10:17;28.80;99.90
46976;DHT22;32724;51.094;6.996;2022-07-12T12:12:43;28.90;99.90
46976;DHT22;32724;51.094;6.996;2022-07-12T12:15:10;28.70;99.90
46976;DHT22;32724;51.094;6.996;2022-07-12T12:17:37;28.70;99.90
46976;DHT22;32724;51.094;6.996;2022-07-12T12:23:00;28.80;99.90
46976;DHT22;32724;51.094;6.996;2022-07-12T12:25:28;28.80;99.80
46976;DHT22;32724;51.094;6.996;2022-07-12T12:27:57;28.90;98.70
46976;DHT22;32724;51.094;6.996;2022-07-12T12:30:23;28.90;98.70
46976;DHT22;32724;51.094;6.996;2022-07-12T12:32:58;28.60;99.90
46976;DHT22;32724;51.094;6.996;2022-07-12T12:35:34;28.50;99.90
46976;DHT22;32724;51.094;6.996;2022-07-12T12:38:02;28.70;99.00
46976;DHT22;32724;51.094;6.996;2022-07-12T12:40:30;29.10;99.90
46976;DHT22;32724;51.094;6.996;2022-07-12T12:43:11;29.40;96.80
46976;DHT22;32724;51.094;6.996;2022-07-12T12:45:53;29.60;96.10
46976;DHT22;32724;51.094;6.996;2022-07-12T12:48:23;29.70;94.50
46976;DHT22;32724;51.094;6.996;2022-07-12T12:50:49;29.80;94.50
46976;DHT22;32724;51.094;6.996;2022-07-12T12:55:41;30.00;95.30
46976;DHT22;32724;51.094;6.996;2022-07-12T12:58:07;29.90;93.90
46976;DHT22;32724;51.094;6.996;2022-07-12T13:00:34;29.90;94.50
46976;DHT22;32724;51.094;6.996;2022-07-12T13:03:00;29.90;91.90
46976;DHT22;32724;51.094;6.996;2022-07-12T13:05:27;29.60;90.60
46976;DHT22;32724;51.094;6.996;2022-07-12T13:07:53;29.50;91.80
46976;DHT22;32724;51.094;6.996;2022-07-12T13:10:18;29.40;91.80
46976;DHT22;32724;51.094;6.996;2022-07-12T13:12:44;29.30;91.40
46976;DHT22;32724;51.094;6.996;2022-07-12T13:15:12;29.10;92.30
46976;DHT22;32724;51.094;6.996;2022-07-12T13:17:37;28.80;92.00
46976;DHT22;32724;51.094;6.996;2022-07-12T13:20:04;28.70;92.30
46976;DHT22;32724;51.094;6.996;2022-07-12T13:22:29;28.60;92.30
46976;DHT22;32724;51.094;6.996;2022-07-12T13:24:55;28.60;92.50
46976;DHT22;32724;51.094;6.996;2022-07-12T13:27:21;28.90;93.20
46976;DHT22;32724;51.094;6.996;2022-07-12T13:29:46;29.20;91.10
46976;DHT22;32724;51.094;6.996;2022-07-12T13:32:12;29.40;90.80
46976;DHT22;32724;51.094;6.996;2022-07-12T13:34:37;29.30;91.00
46976;DHT22;32724;51.094;6.996;2022-07-12T13:37:03;29.30;92.60
46976;DHT22;32724;51.094;6.996;2022-07-12T13:39:29;29.40;92.10
46976;DHT22;32724;51.094;6.996;2022-07-12T13:42:13;29.60;90.90
46976;DHT22;32724;51.094;6.996;2022-07-12T13:44:38;29.90;90.80
46976;DHT22;32724;51.094;6.996;2022-07-12T13:47:04;29.70;89.60
46976;DHT22;32724;51.094;6.996;2022-07-12T13:49:30;29.60;90.40
46976;DHT22;32724;51.094;6.996;2022-07-12T13:51:55;29.50;90.50
46976;DHT22;32724;51.094;6.996;2022-07-12T13:54:20;29.60;90.70
46976;DHT22;32724;51.094;6.996;2022-07-12T13:56:46;29.70;90.10
46976;DHT22;32724;51.094;6.996;2022-07-12T13:59:15;29.50;88.10
46976;DHT22;32724;51.094;6.996;2022-07-12T14:01:40;29.20;88.30
46976;DHT22;32724;51.094;6.996;2022-07-12T14:04:05;29.10;88.20
46976;DHT22;32724;51.094;6.996;2022-07-12T14:06:31;29.30;90.00
46976;DHT22;32724;51.094;6.996;2022-07-12T14:08:57;29.30;88.90
46976;DHT22;32724;51.094;6.996;2022-07-12T14:11:22;29.40;89.50
46976;DHT22;32724;51.094;6.996;2022-07-12T14:13:48;29.50;90.20
46976;DHT22;32724;51.094;6.996;2022-07-12T14:16:13;29.40;90.30
46976;DHT22;32724;51.094;6.996;2022-07-12T14:18:39;29.40;89.40
46976;DHT22;32724;51.094;6.996;2022-07-12T14:21:05;29.50;88.30
46976;DHT22;32724;51.094;6.996;2022-07-12T14:23:32;29.70;90.00
46976;DHT22;32724;51.094;6.996;2022-07-12T14:25:57;29.90;90.20
46976;DHT22;32724;51.094;6.996;2022-07-12T14:28:22;30.10;86.70
46976;DHT22;32724;51.094;6.996;2022-07-12T14:30:48;30.00;83.60
46976;DHT22;32724;51.094;6.996;2022-07-12T14:33:13;29.90;84.80
46976;DHT22;32724;51.094;6.996;2022-07-12T14:35:39;30.00;83.60
46976;DHT22;32724;51.094;6.996;2022-07-12T14:38:04;29.90;82.70
46976;DHT22;32724;51.094;6.996;2022-07-12T14:40:30;29.80;82.60
46976;DHT22;32724;51.094;6.996;2022-07-12T14:42:55;29.80;78.70
46976;DHT22;32724;51.094;6.996;2022-07-12T14:45:22;29.70;78.80
46976;DHT22;32724;51.094;6.996;2022-07-12T14:47:48;29.70;81.70
46976;DHT22;32724;51.094;6.996;2022-07-12T14:50:14;29.80;80.60
46976;DHT22;32724;51.094;6.996;2022-07-12T14:52:39;30.00;78.60
46976;DHT22;32724;51.094;6.996;2022-07-12T14:55:05;30.10;81.20
46976;DHT22;32724;51.094;6.996;2022-07-12T14:57:30;29.90;73.80
46976;DHT22;32724;51.094;6.996;2022-07-12T14:59:56;29.90;71.90
46976;DHT22;32724;51.094;6.996;2022-07-12T15:02:21;29.80;71.30
46976;DHT22;32724;51.094;6.996;2022-07-12T15:04:47;29.80;72.60
46976;DHT22;32724;51.094;6.996;2022-07-12T15:07:13;29.90;73.80
46976;DHT22;32724;51.094;6.996;2022-07-12T15:09:38;30.10;74.40
46976;DHT22;32724;51.094;6.996;2022-07-12T15:12:04;30.50;71.50
46976;DHT22;32724;51.094;6.996;2022-07-12T15:14:29;30.60;69.50
46976;DHT22;32724;51.094;6.996;2022-07-12T15:16:55;30.80;67.40
46976;DHT22;32724;51.094;6.996;2022-07-12T15:19:20;30.90;69.40
46976;DHT22;32724;51.094;6.996;2022-07-12T15:21:46;31.10;66.30
46976;DHT22;32724;51.094;6.996;2022-07-12T15:24:11;31.20;67.30
46976;DHT22;32724;51.094;6.996;2022-07-12T15:26:37;31.30;67.10
46976;DHT22;32724;51.094;6.996;2022-07-12T15:29:05;31.40;67.10
46976;DHT22;32724;51.094;6.996;2022-07-12T15:31:31;31.10;64.00
46976;DHT22;32724;51.094;6.996;2022-07-12T15:33:58;30.90;64.20
46976;DHT22;32724;51.094;6.996;2022-07-12T15:36:23;30.70;62.70
46976;DHT22;32724;51.094;6.996;2022-07-12T15:38:49;30.60;62.90
46976;DHT22;32724;51.094;6.996;2022-07-12T15:41:14;30.50;63.80
46976;DHT22;32724;51.094;6.996;2022-07-12T15:43:40;30.40;63.50
46976;DHT22;32724;51.094;6.996;2022-07-12T15:46:07;30.40;63.10
46976;DHT22;32724;51.094;6.996;2022-07-12T15:48:32;30.40;61.60
46976;DHT22;32724;51.094;6.996;2022-07-12T15:50:58;30.40;61.80
46976;DHT22;32724;51.094;6.996;2022-07-12T15:53:23;30.30;61.50
46976;DHT22;32724;51.094;6.996;2022-07-12T15:56:02;30.30;61.90
46976;DHT22;32724;51.094;6.996;2022-07-12T15:58:29;30.40;63.40